Historyczne dane pomiarowe

Dodano dane terminowe – wersja testowa.

Dane z okresu 1951-2019

Wersja bazy: 1.34 [2019-03-16, lista zmian], aktualizacja planowana na 2019-04-15

Dane meteo z obszaru Polski uzyskane na podstawie danych udostępnionych przez Instytut Meteorologii i Gospodarki Wodnej – Państwowy Instytut Badawczy.

 

Wybierz Datę:    

       

TemperaturaWilgotnośćWiatrCiśnienieOpadyŚniegCzas trwania zjawisk
 Stacja t tx tn tng RH VA  wxwx mslp ppp RRR   cm mm wxwxwxwxwxwxwx
1999-08-14 12.3 21.2 5.3- 69.8- 0.3 1.3---- 0.0------------
1999-08-13 13.2 20.3 8.2- 67.5- 6.3 1.0---- 0.0------------
1999-08-12 13.5 18.3 10.2- 76.8- 7.0 1.3---- 0.0------------
1999-08-11 17.4 24.1 13.2- 69.3- 7.0 1.3---- 0.3------------
1999-08-10 19.3 25.7 14.6- 77.0- 7.7 1.3---- 3.9------------
1999-08-09 20.3 28.0 15.1- 73.5- 4.0 1.0---- 1.6------------
1999-08-08 18.6 24.0 13.2- 72.5- 4.3 1.3---- 0.0------------
1999-08-07 21.1 28.0 14.1- 69.0- 7.3 1.0---- 3.2------------
1999-08-06 19.9 27.1 13.2- 68.5- 5.0 0.7---- 0.0------------
1999-08-05 17.2 26.7 9.4- 64.8- 0.3 1.3---- 3.1------------
1999-08-04 15.4 23.0 8.4- 71.3- 0.7 1.3---- 0.0------------
1999-08-03 15.4 22.7 9.8- 62.8- 1.0 0.7---- 0.0------------
1999-08-02 15.2 22.3 9.3- 69.0- 4.3 1.3---- 0.0------------
1999-08-01 17.0 24.0 12.2- 74.5- 4.0 1.0---- 0.0------------
1999-07-31 16.4 23.1 10.2- 59.5- 3.0 1.3---- 0.0------------
1999-07-30 15.1 22.2 8.8- 65.3- 2.3 1.3---- 0.0------------
1999-07-29 16.2 24.0 10.2- 67.5- 1.0 3.0---- 0.0------------
1999-07-28 17.3 23.0 13.0- 63.8- 2.7 1.7---- 0.0------------
1999-07-27 16.6 20.2 14.1- 86.0- 8.0 1.3---- 0.0------------
1999-07-26 18.4 24.1 13.2- 71.0- 3.3 0.3---- 0.0------------
1999-07-25 16.2 24.2 8.2- 70.5- 1.0 1.7---- 0.0------------
1999-07-24 13.4 18.2 8.1- 83.0- 7.7 0.0---- 0.0------------
1999-07-23 12.8 17.1 10.9- 90.8- 7.7 1.0---- 17.1------------
1999-07-22 17.1 21.0 14.3- 74.8- 6.7 1.3---- 10.1------------
1999-07-21 17.6 24.0 13.3- 71.8- 5.3 0.0---- 5.8------------
1999-07-20 18.8 25.5 12.2- 67.3- 0.7 1.7---- 0.0------------
1999-07-19 18.5 26.3 10.4- 60.5- 1.0 0.0---- 0.0------------
1999-07-18 16.5 24.2 8.5- 64.8- 0.0 0.3---- 0.0------------
1999-07-17 14.8 22.2 7.9- 69.0- 0.7 1.0---- 0.0------------
1999-07-16 15.2 20.2 10.2- 65.0- 3.7 1.0---- 0.0------------
1999-07-15 16.1 22.2 11.8- 74.3- 4.7 2.3---- 0.0------------
1999-07-14 17.3 20.0 14.7- 77.0- 6.0 0.7---- 5.1------------
1999-07-13 18.9 25.0 14.2- 69.3- 7.0 0.3---- 41.3------------
1999-07-12 18.8 24.2 13.7- 71.0- 6.3 1.0---- 0.0------------
1999-07-11 18.1 22.2 15.1- 81.8- 7.3 1.3---- 2.3------------
1999-07-10 17.8 20.1 15.7- 70.5- 7.0 4.3---- 0.3------------
1999-07-09 15.9 18.2 13.3- 91.5- 8.0 2.3---- 2.9------------
1999-07-08 16.3 22.0 13.3- 91.5- 8.0 0.7---- 25.2------------
1999-07-07 19.6 25.0 17.1- 82.0- 8.0 0.7---- 49.9------------
1999-07-06 23.4 31.0 15.7- 53.0- 1.3 3.3---- 0.0------------
1999-07-05 22.4 30.1 15.2- 58.5- 0.0 2.0---- 0.0------------
1999-07-04 21.4 30.0 13.3- 66.0- 0.0 1.0---- 0.0------------
1999-07-03 18.7 24.6 13.2- 75.3- 3.0 2.3---- 0.0------------
1999-07-02 17.6 24.1 11.3- 69.8- 3.7 1.0---- 0.0------------
1999-07-01 17.8 23.2 13.2- 73.0- 5.3 1.0---- 7.1------------
1999-06-30 18.0 23.7 12.3- 64.5- 6.0 1.0---- 0.0------------
1999-06-29 17.3 23.7 12.2- 69.0- 1.7 1.0---- 0.0------------
1999-06-28 17.5 28.0 11.2- 65.0- 4.7 1.7---- 14.6------------
1999-06-27 18.4 25.0 10.3- 57.8- 4.0 0.7---- 0.0------------
1999-06-26 15.5 22.4 7.3- 58.0- 0.0 1.7---- 0.0------------
1999-06-25 10.7 19.0 2.6- 71.8- 0.7 2.0---- 0.0------------
1999-06-24 9.2 12.3 6.1- 73.8- 4.7 0.7---- 0.0------------
1999-06-23 7.9 10.1 5.1- 92.3- 8.0 2.3---- 1.1------------
1999-06-22 8.6 13.1 7.1- 92.0- 8.0 3.3---- 17.7------------
1999-06-21 16.1 22.3 13.1- 90.3- 8.0 0.7---- 30.4------------
1999-06-20 15.4 21.1 10.8- 92.0- 8.0 1.0---- 0.1------------
1999-06-19 12.9 15.3 11.0- 93.3- 7.3 0.0---- 0.0------------
1999-06-18 13.9 16.4 12.0- 93.3- 8.0 1.3---- 15.2------------
1999-06-17 16.4 21.1 13.2- 88.3- 8.0 0.7---- 10.2------------
1999-06-16 16.5 22.0 13.4- 91.8- 8.0 1.0---- 2.2------------
294.9 ms

 

Źródłem pochodzenia danych jest Instytut Meteorologii i Gospodarki Wodnej – Państwowy Instytut Badawczy. Dane Instytutu Meteorologii i Gospodarki Wodnej – Państwowego Instytutu Badawczego zostały przetworzone.

Dane źródłowe można odnaleźć na stronie https://dane.imgw.pl